sensor_id;sensor_type;location;lat;lon;timestamp;P1;durP1;ratioP1;P2;durP2;ratioP2
81374;SDS011;70828;51.158;4.998;2023-07-16T00:01:46;6.88;;;2.00;;
81374;SDS011;70828;51.158;4.998;2023-07-16T00:04:12;7.30;;;1.70;;
81374;SDS011;70828;51.158;4.998;2023-07-16T00:06:39;6.10;;;1.70;;
81374;SDS011;70828;51.158;4.998;2023-07-16T00:09:07;5.47;;;1.45;;
81374;SDS011;70828;51.158;4.998;2023-07-16T00:11:33;5.07;;;1.48;;
81374;SDS011;70828;51.158;4.998;2023-07-16T00:14:00;4.60;;;1.55;;
81374;SDS011;70828;51.158;4.998;2023-07-16T00:16:27;4.10;;;1.92;;
81374;SDS011;70828;51.158;4.998;2023-07-16T00:18:53;6.97;;;1.48;;
81374;SDS011;70828;51.158;4.998;2023-07-16T00:21:20;10.43;;;1.92;;
81374;SDS011;70828;51.158;4.998;2023-07-16T00:23:46;5.00;;;2.03;;
81374;SDS011;70828;51.158;4.998;2023-07-16T00:26:14;3.47;;;1.90;;
81374;SDS011;70828;51.158;4.998;2023-07-16T00:28:41;11.98;;;2.15;;
81374;SDS011;70828;51.158;4.998;2023-07-16T00:31:07;5.57;;;2.25;;
81374;SDS011;70828;51.158;4.998;2023-07-16T00:33:34;5.38;;;2.47;;
81374;SDS011;70828;51.158;4.998;2023-07-16T00:36:01;4.22;;;2.20;;
81374;SDS011;70828;51.158;4.998;2023-07-16T00:38:27;3.67;;;1.50;;
81374;SDS011;70828;51.158;4.998;2023-07-16T00:40:55;4.65;;;1.60;;
81374;SDS011;70828;51.158;4.998;2023-07-16T00:43:23;3.40;;;1.63;;
81374;SDS011;70828;51.158;4.998;2023-07-16T00:45:49;4.30;;;1.70;;
81374;SDS011;70828;51.158;4.998;2023-07-16T00:48:16;5.65;;;2.17;;
81374;SDS011;70828;51.158;4.998;2023-07-16T00:50:42;6.88;;;1.52;;
81374;SDS011;70828;51.158;4.998;2023-07-16T00:53:09;5.82;;;2.65;;
81374;SDS011;70828;51.158;4.998;2023-07-16T00:55:36;4.28;;;2.00;;
81374;SDS011;70828;51.158;4.998;2023-07-16T00:58:03;9.32;;;2.03;;
81374;SDS011;70828;51.158;4.998;2023-07-16T01:00:32;4.40;;;2.00;;
81374;SDS011;70828;51.158;4.998;2023-07-16T01:02:59;6.30;;;2.58;;
81374;SDS011;70828;51.158;4.998;2023-07-16T01:05:27;6.93;;;2.03;;
81374;SDS011;70828;51.158;4.998;2023-07-16T01:08:00;8.15;;;2.42;;
81374;SDS011;70828;51.158;4.998;2023-07-16T01:10:29;7.53;;;2.15;;
81374;SDS011;70828;51.158;4.998;2023-07-16T01:12:56;4.68;;;2.13;;
81374;SDS011;70828;51.158;4.998;2023-07-16T01:15:23;6.30;;;2.35;;
81374;SDS011;70828;51.158;4.998;2023-07-16T01:17:52;5.57;;;2.08;;
81374;SDS011;70828;51.158;4.998;2023-07-16T01:20:18;9.23;;;2.78;;
81374;SDS011;70828;51.158;4.998;2023-07-16T01:22:48;5.97;;;1.92;;
81374;SDS011;70828;51.158;4.998;2023-07-16T01:25:32;6.28;;;2.33;;
81374;SDS011;70828;51.158;4.998;2023-07-16T01:28:17;5.38;;;1.95;;
81374;SDS011;70828;51.158;4.998;2023-07-16T01:30:50;4.10;;;1.77;;
81374;SDS011;70828;51.158;4.998;2023-07-16T01:33:18;5.15;;;1.90;;
81374;SDS011;70828;51.158;4.998;2023-07-16T01:35:46;6.95;;;2.20;;
81374;SDS011;70828;51.158;4.998;2023-07-16T01:38:13;6.20;;;1.70;;
81374;SDS011;70828;51.158;4.998;2023-07-16T01:40:41;6.65;;;2.08;;
81374;SDS011;70828;51.158;4.998;2023-07-16T01:43:07;8.18;;;2.15;;
81374;SDS011;70828;51.158;4.998;2023-07-16T01:45:34;4.72;;;1.95;;
81374;SDS011;70828;51.158;4.998;2023-07-16T01:48:05;6.13;;;2.13;;
81374;SDS011;70828;51.158;4.998;2023-07-16T01:50:34;6.28;;;3.10;;
81374;SDS011;70828;51.158;4.998;2023-07-16T01:53:01;7.60;;;2.28;;
81374;SDS011;70828;51.158;4.998;2023-07-16T01:55:28;4.78;;;2.15;;
81374;SDS011;70828;51.158;4.998;2023-07-16T01:57:54;7.07;;;1.83;;
81374;SDS011;70828;51.158;4.998;2023-07-16T02:00:21;4.53;;;2.20;;
81374;SDS011;70828;51.158;4.998;2023-07-16T02:02:48;5.72;;;1.80;;
81374;SDS011;70828;51.158;4.998;2023-07-16T02:05:16;10.38;;;2.42;;
81374;SDS011;70828;51.158;4.998;2023-07-16T02:07:42;11.38;;;2.53;;
81374;SDS011;70828;51.158;4.998;2023-07-16T02:10:09;4.47;;;2.20;;
81374;SDS011;70828;51.158;4.998;2023-07-16T02:12:37;6.97;;;1.83;;
81374;SDS011;70828;51.158;4.998;2023-07-16T02:15:04;7.95;;;2.30;;
81374;SDS011;70828;51.158;4.998;2023-07-16T02:17:31;6.82;;;1.75;;
81374;SDS011;70828;51.158;4.998;2023-07-16T02:19:57;8.00;;;1.70;;
81374;SDS011;70828;51.158;4.998;2023-07-16T02:22:25;8.73;;;1.98;;
81374;SDS011;70828;51.158;4.998;2023-07-16T02:24:52;5.78;;;2.63;;
81374;SDS011;70828;51.158;4.998;2023-07-16T02:27:18;7.10;;;2.13;;
81374;SDS011;70828;51.158;4.998;2023-07-16T02:29:44;8.98;;;2.67;;
81374;SDS011;70828;51.158;4.998;2023-07-16T02:32:10;5.38;;;2.08;;
81374;SDS011;70828;51.158;4.998;2023-07-16T02:34:37;5.47;;;2.10;;
81374;SDS011;70828;51.158;4.998;2023-07-16T02:37:04;8.63;;;2.22;;
81374;SDS011;70828;51.158;4.998;2023-07-16T02:39:32;8.45;;;2.05;;
81374;SDS011;70828;51.158;4.998;2023-07-16T02:41:58;7.15;;;2.33;;
81374;SDS011;70828;51.158;4.998;2023-07-16T02:44:25;4.47;;;2.00;;
81374;SDS011;70828;51.158;4.998;2023-07-16T02:46:51;12.48;;;2.28;;
81374;SDS011;70828;51.158;4.998;2023-07-16T02:49:19;5.82;;;1.92;;
81374;SDS011;70828;51.158;4.998;2023-07-16T02:51:46;8.40;;;2.13;;
81374;SDS011;70828;51.158;4.998;2023-07-16T02:54:12;7.68;;;2.20;;
81374;SDS011;70828;51.158;4.998;2023-07-16T02:56:40;8.68;;;2.92;;
81374;SDS011;70828;51.158;4.998;2023-07-16T02:59:07;7.05;;;2.25;;
81374;SDS011;70828;51.158;4.998;2023-07-16T03:01:33;7.43;;;2.47;;
81374;SDS011;70828;51.158;4.998;2023-07-16T03:04:00;4.35;;;2.22;;
81374;SDS011;70828;51.158;4.998;2023-07-16T03:06:26;9.10;;;2.65;;
81374;SDS011;70828;51.158;4.998;2023-07-16T03:08:53;6.18;;;2.13;;
81374;SDS011;70828;51.158;4.998;2023-07-16T03:11:20;5.57;;;2.25;;
81374;SDS011;70828;51.158;4.998;2023-07-16T03:13:48;13.32;;;2.67;;
81374;SDS011;70828;51.158;4.998;2023-07-16T03:16:14;6.70;;;2.33;;
81374;SDS011;70828;51.158;4.998;2023-07-16T03:18:41;5.90;;;2.30;;
81374;SDS011;70828;51.158;4.998;2023-07-16T03:21:08;7.22;;;2.60;;
81374;SDS011;70828;51.158;4.998;2023-07-16T03:23:34;7.53;;;3.10;;
81374;SDS011;70828;51.158;4.998;2023-07-16T03:26:01;6.63;;;2.47;;
81374;SDS011;70828;51.158;4.998;2023-07-16T03:28:27;9.60;;;2.28;;
81374;SDS011;70828;51.158;4.998;2023-07-16T03:30:55;6.63;;;2.65;;
81374;SDS011;70828;51.158;4.998;2023-07-16T03:33:22;5.13;;;2.78;;
81374;SDS011;70828;51.158;4.998;2023-07-16T03:35:49;8.43;;;3.20;;
81374;SDS011;70828;51.158;4.998;2023-07-16T03:38:15;6.90;;;3.00;;
81374;SDS011;70828;51.158;4.998;2023-07-16T03:40:42;9.73;;;2.60;;
81374;SDS011;70828;51.158;4.998;2023-07-16T03:43:13;8.50;;;3.22;;
81374;SDS011;70828;51.158;4.998;2023-07-16T03:45:39;10.55;;;3.35;;
81374;SDS011;70828;51.158;4.998;2023-07-16T03:48:08;9.80;;;3.40;;
81374;SDS011;70828;51.158;4.998;2023-07-16T03:50:35;11.23;;;2.40;;
81374;SDS011;70828;51.158;4.998;2023-07-16T03:53:01;9.90;;;3.08;;
81374;SDS011;70828;51.158;4.998;2023-07-16T03:55:29;8.57;;;2.95;;
81374;SDS011;70828;51.158;4.998;2023-07-16T03:57:55;9.35;;;3.05;;
81374;SDS011;70828;51.158;4.998;2023-07-16T04:00:22;6.20;;;3.60;;
81374;SDS011;70828;51.158;4.998;2023-07-16T04:02:49;10.77;;;3.30;;
81374;SDS011;70828;51.158;4.998;2023-07-16T04:05:17;7.53;;;3.90;;
81374;SDS011;70828;51.158;4.998;2023-07-16T04:07:43;12.07;;;3.17;;
81374;SDS011;70828;51.158;4.998;2023-07-16T04:10:10;15.55;;;3.92;;
81374;SDS011;70828;51.158;4.998;2023-07-16T04:12:36;7.85;;;2.90;;
81374;SDS011;70828;51.158;4.998;2023-07-16T04:15:06;13.50;;;3.10;;
81374;SDS011;70828;51.158;4.998;2023-07-16T04:17:34;6.55;;;3.05;;
81374;SDS011;70828;51.158;4.998;2023-07-16T04:20:00;8.30;;;3.90;;
81374;SDS011;70828;51.158;4.998;2023-07-16T04:22:29;8.02;;;3.13;;
81374;SDS011;70828;51.158;4.998;2023-07-16T04:24:56;9.57;;;3.63;;
81374;SDS011;70828;51.158;4.998;2023-07-16T04:27:22;5.97;;;2.88;;
81374;SDS011;70828;51.158;4.998;2023-07-16T04:29:49;8.27;;;3.05;;
81374;SDS011;70828;51.158;4.998;2023-07-16T04:32:16;16.88;;;3.50;;
81374;SDS011;70828;51.158;4.998;2023-07-16T04:34:42;8.93;;;3.05;;
81374;SDS011;70828;51.158;4.998;2023-07-16T04:37:09;8.40;;;2.85;;
81374;SDS011;70828;51.158;4.998;2023-07-16T04:39:37;7.88;;;3.53;;
81374;SDS011;70828;51.158;4.998;2023-07-16T04:42:04;9.18;;;3.03;;
81374;SDS011;70828;51.158;4.998;2023-07-16T04:44:31;7.30;;;2.80;;
81374;SDS011;70828;51.158;4.998;2023-07-16T04:46:57;7.63;;;2.50;;
81374;SDS011;70828;51.158;4.998;2023-07-16T04:49:24;11.20;;;3.35;;
81374;SDS011;70828;51.158;4.998;2023-07-16T04:51:50;11.02;;;3.25;;
81374;SDS011;70828;51.158;4.998;2023-07-16T04:54:17;8.95;;;3.33;;
81374;SDS011;70828;51.158;4.998;2023-07-16T04:56:45;5.88;;;2.90;;
81374;SDS011;70828;51.158;4.998;2023-07-16T04:59:11;11.68;;;3.33;;
81374;SDS011;70828;51.158;4.998;2023-07-16T05:01:38;7.40;;;3.28;;
81374;SDS011;70828;51.158;4.998;2023-07-16T05:04:05;7.10;;;2.55;;
81374;SDS011;70828;51.158;4.998;2023-07-16T05:06:33;8.85;;;3.90;;
81374;SDS011;70828;51.158;4.998;2023-07-16T05:08:59;10.10;;;3.10;;
81374;SDS011;70828;51.158;4.998;2023-07-16T05:11:26;8.73;;;3.20;;
81374;SDS011;70828;51.158;4.998;2023-07-16T05:13:54;5.70;;;3.05;;
81374;SDS011;70828;51.158;4.998;2023-07-16T05:16:21;12.70;;;3.30;;
81374;SDS011;70828;51.158;4.998;2023-07-16T05:18:47;6.18;;;3.33;;
81374;SDS011;70828;51.158;4.998;2023-07-16T05:21:14;12.80;;;3.55;;
81374;SDS011;70828;51.158;4.998;2023-07-16T05:23:40;8.85;;;3.70;;
81374;SDS011;70828;51.158;4.998;2023-07-16T05:26:07;11.43;;;3.38;;
81374;SDS011;70828;51.158;4.998;2023-07-16T05:28:34;9.10;;;3.78;;
81374;SDS011;70828;51.158;4.998;2023-07-16T05:31:02;8.10;;;3.85;;
81374;SDS011;70828;51.158;4.998;2023-07-16T05:33:29;8.40;;;3.90;;
81374;SDS011;70828;51.158;4.998;2023-07-16T05:35:56;12.95;;;3.17;;
81374;SDS011;70828;51.158;4.998;2023-07-16T05:38:22;12.10;;;3.40;;
81374;SDS011;70828;51.158;4.998;2023-07-16T05:40:49;6.75;;;2.88;;
81374;SDS011;70828;51.158;4.998;2023-07-16T05:43:16;6.75;;;3.10;;
81374;SDS011;70828;51.158;4.998;2023-07-16T05:45:42;8.35;;;3.42;;
81374;SDS011;70828;51.158;4.998;2023-07-16T05:48:10;8.65;;;2.90;;
81374;SDS011;70828;51.158;4.998;2023-07-16T05:50:37;10.38;;;3.17;;
81374;SDS011;70828;51.158;4.998;2023-07-16T05:53:03;9.48;;;3.85;;
81374;SDS011;70828;51.158;4.998;2023-07-16T05:55:30;14.48;;;4.05;;
81374;SDS011;70828;51.158;4.998;2023-07-16T05:57:57;10.93;;;3.30;;
81374;SDS011;70828;51.158;4.998;2023-07-16T06:00:23;8.27;;;3.60;;
81374;SDS011;70828;51.158;4.998;2023-07-16T06:02:50;14.00;;;4.50;;
81374;SDS011;70828;51.158;4.998;2023-07-16T06:05:18;10.93;;;4.22;;
81374;SDS011;70828;51.158;4.998;2023-07-16T06:07:44;8.63;;;3.40;;
81374;SDS011;70828;51.158;4.998;2023-07-16T06:10:11;10.85;;;3.80;;
81374;SDS011;70828;51.158;4.998;2023-07-16T06:12:37;10.02;;;3.83;;
81374;SDS011;70828;51.158;4.998;2023-07-16T06:15:04;8.63;;;4.40;;
81374;SDS011;70828;51.158;4.998;2023-07-16T06:17:31;12.90;;;4.68;;
81374;SDS011;70828;51.158;4.998;2023-07-16T06:19:58;13.95;;;4.80;;
81374;SDS011;70828;51.158;4.998;2023-07-16T06:22:26;12.52;;;4.30;;
81374;SDS011;70828;51.158;4.998;2023-07-16T06:24:52;10.73;;;3.72;;
81374;SDS011;70828;51.158;4.998;2023-07-16T06:27:19;11.32;;;3.88;;
81374;SDS011;70828;51.158;4.998;2023-07-16T06:29:45;9.18;;;3.38;;
81374;SDS011;70828;51.158;4.998;2023-07-16T06:32:12;17.83;;;5.00;;
81374;SDS011;70828;51.158;4.998;2023-07-16T06:34:38;11.23;;;4.53;;
81374;SDS011;70828;51.158;4.998;2023-07-16T06:37:05;10.93;;;4.22;;
81374;SDS011;70828;51.158;4.998;2023-07-16T06:39:33;10.45;;;4.97;;
81374;SDS011;70828;51.158;4.998;2023-07-16T06:42:00;12.38;;;4.55;;
81374;SDS011;70828;51.158;4.998;2023-07-16T06:44:26;12.18;;;4.07;;
81374;SDS011;70828;51.158;4.998;2023-07-16T06:46:53;11.52;;;3.85;;
81374;SDS011;70828;51.158;4.998;2023-07-16T06:49:21;8.98;;;4.40;;
81374;SDS011;70828;51.158;4.998;2023-07-16T06:51:47;8.48;;;4.15;;
81374;SDS011;70828;51.158;4.998;2023-07-16T06:54:14;11.23;;;4.18;;
81374;SDS011;70828;51.158;4.998;2023-07-16T06:56:42;12.93;;;4.75;;
81374;SDS011;70828;51.158;4.998;2023-07-16T06:59:09;11.32;;;4.18;;
81374;SDS011;70828;51.158;4.998;2023-07-16T07:01:35;11.63;;;4.40;;
81374;SDS011;70828;51.158;4.998;2023-07-16T07:04:02;8.38;;;4.78;;
81374;SDS011;70828;51.158;4.998;2023-07-16T07:06:28;9.20;;;4.63;;
81374;SDS011;70828;51.158;4.998;2023-07-16T07:08:55;8.98;;;3.83;;
81374;SDS011;70828;51.158;4.998;2023-07-16T07:11:22;11.35;;;4.18;;
81374;SDS011;70828;51.158;4.998;2023-07-16T07:13:51;9.80;;;3.70;;
81374;SDS011;70828;51.158;4.998;2023-07-16T07:16:18;10.48;;;4.10;;
81374;SDS011;70828;51.158;4.998;2023-07-16T07:18:45;14.90;;;4.65;;
81374;SDS011;70828;51.158;4.998;2023-07-16T07:21:12;9.75;;;4.75;;
81374;SDS011;70828;51.158;4.998;2023-07-16T07:23:38;10.25;;;4.03;;
81374;SDS011;70828;51.158;4.998;2023-07-16T07:26:05;9.75;;;5.15;;
81374;SDS011;70828;51.158;4.998;2023-07-16T07:28:32;9.13;;;4.35;;
81374;SDS011;70828;51.158;4.998;2023-07-16T07:31:00;11.30;;;3.88;;
81374;SDS011;70828;51.158;4.998;2023-07-16T07:33:27;8.68;;;4.13;;
81374;SDS011;70828;51.158;4.998;2023-07-16T07:35:54;7.85;;;3.42;;
81374;SDS011;70828;51.158;4.998;2023-07-16T07:38:20;19.10;;;3.95;;
81374;SDS011;70828;51.158;4.998;2023-07-16T07:40:47;10.90;;;4.15;;
81374;SDS011;70828;51.158;4.998;2023-07-16T07:43:13;12.15;;;4.10;;
81374;SDS011;70828;51.158;4.998;2023-07-16T07:45:40;9.15;;;4.03;;
81374;SDS011;70828;51.158;4.998;2023-07-16T07:48:08;13.55;;;4.38;;
81374;SDS011;70828;51.158;4.998;2023-07-16T07:50:35;14.85;;;4.22;;
81374;SDS011;70828;51.158;4.998;2023-07-16T07:53:01;7.35;;;3.58;;
81374;SDS011;70828;51.158;4.998;2023-07-16T07:55:28;10.95;;;3.80;;
81374;SDS011;70828;51.158;4.998;2023-07-16T07:57:54;15.60;;;3.83;;
81374;SDS011;70828;51.158;4.998;2023-07-16T08:00:21;10.50;;;3.45;;
81374;SDS011;70828;51.158;4.998;2023-07-16T08:02:48;9.02;;;4.28;;
81374;SDS011;70828;51.158;4.998;2023-07-16T08:05:16;10.80;;;3.65;;
81374;SDS011;70828;51.158;4.998;2023-07-16T08:07:42;9.88;;;3.53;;
81374;SDS011;70828;51.158;4.998;2023-07-16T08:10:10;11.90;;;4.40;;
81374;SDS011;70828;51.158;4.998;2023-07-16T08:12:36;9.35;;;4.00;;
81374;SDS011;70828;51.158;4.998;2023-07-16T08:15:03;11.35;;;3.10;;
81374;SDS011;70828;51.158;4.998;2023-07-16T08:17:32;10.13;;;3.30;;
81374;SDS011;70828;51.158;4.998;2023-07-16T08:19:59;12.98;;;4.10;;
81374;SDS011;70828;51.158;4.998;2023-07-16T08:22:27;7.82;;;3.67;;
81374;SDS011;70828;51.158;4.998;2023-07-16T08:24:53;14.25;;;3.78;;
81374;SDS011;70828;51.158;4.998;2023-07-16T08:27:20;8.93;;;3.83;;
81374;SDS011;70828;51.158;4.998;2023-07-16T08:29:46;11.90;;;3.47;;
81374;SDS011;70828;51.158;4.998;2023-07-16T08:32:13;11.07;;;3.60;;
81374;SDS011;70828;51.158;4.998;2023-07-16T08:34:40;10.05;;;3.65;;
81374;SDS011;70828;51.158;4.998;2023-07-16T08:37:06;8.18;;;3.58;;
81374;SDS011;70828;51.158;4.998;2023-07-16T08:39:34;11.10;;;3.53;;
81374;SDS011;70828;51.158;4.998;2023-07-16T08:42:01;7.68;;;3.35;;
81374;SDS011;70828;51.158;4.998;2023-07-16T08:44:28;9.77;;;3.63;;
81374;SDS011;70828;51.158;4.998;2023-07-16T08:46:55;9.48;;;3.53;;
81374;SDS011;70828;51.158;4.998;2023-07-16T08:49:22;8.95;;;3.42;;
81374;SDS011;70828;51.158;4.998;2023-07-16T08:51:49;9.15;;;3.30;;
81374;SDS011;70828;51.158;4.998;2023-07-16T08:54:16;8.13;;;2.85;;
81374;SDS011;70828;51.158;4.998;2023-07-16T08:56:46;10.70;;;3.00;;
81374;SDS011;70828;51.158;4.998;2023-07-16T08:59:14;10.75;;;3.40;;
81374;SDS011;70828;51.158;4.998;2023-07-16T09:01:41;8.93;;;3.03;;
81374;SDS011;70828;51.158;4.998;2023-07-16T09:04:08;7.85;;;3.10;;
81374;SDS011;70828;51.158;4.998;2023-07-16T09:06:34;10.02;;;3.13;;
81374;SDS011;70828;51.158;4.998;2023-07-16T09:09:01;7.65;;;3.90;;
81374;SDS011;70828;51.158;4.998;2023-07-16T09:11:28;7.15;;;3.42;;
81374;SDS011;70828;51.158;4.998;2023-07-16T09:13:56;7.32;;;3.45;;
81374;SDS011;70828;51.158;4.998;2023-07-16T09:16:31;4.50;;;2.67;;
81374;SDS011;70828;51.158;4.998;2023-07-16T09:19:04;7.68;;;3.55;;
81374;SDS011;70828;51.158;4.998;2023-07-16T09:21:31;7.95;;;3.20;;
81374;SDS011;70828;51.158;4.998;2023-07-16T09:24:00;8.35;;;3.30;;
81374;SDS011;70828;51.158;4.998;2023-07-16T09:26:26;5.72;;;3.03;;
81374;SDS011;70828;51.158;4.998;2023-07-16T09:28:53;7.45;;;2.90;;
81374;SDS011;70828;51.158;4.998;2023-07-16T09:31:21;7.03;;;2.78;;
81374;SDS011;70828;51.158;4.998;2023-07-16T09:33:47;5.63;;;3.00;;
81374;SDS011;70828;51.158;4.998;2023-07-16T09:36:21;6.90;;;3.10;;
81374;SDS011;70828;51.158;4.998;2023-07-16T09:38:49;8.43;;;3.17;;
81374;SDS011;70828;51.158;4.998;2023-07-16T09:41:16;5.80;;;2.75;;
81374;SDS011;70828;51.158;4.998;2023-07-16T09:43:43;10.93;;;2.95;;
81374;SDS011;70828;51.158;4.998;2023-07-16T09:46:10;7.82;;;3.13;;
81374;SDS011;70828;51.158;4.998;2023-07-16T09:48:38;6.80;;;2.80;;
81374;SDS011;70828;51.158;4.998;2023-07-16T09:51:04;6.95;;;2.83;;
81374;SDS011;70828;51.158;4.998;2023-07-16T09:53:34;8.68;;;3.08;;
81374;SDS011;70828;51.158;4.998;2023-07-16T09:56:02;9.13;;;3.08;;
81374;SDS011;70828;51.158;4.998;2023-07-16T09:58:30;6.70;;;2.85;;
81374;SDS011;70828;51.158;4.998;2023-07-16T10:00:57;5.25;;;2.88;;
81374;SDS011;70828;51.158;4.998;2023-07-16T10:03:24;7.13;;;2.97;;
81374;SDS011;70828;51.158;4.998;2023-07-16T10:05:52;6.53;;;3.17;;
81374;SDS011;70828;51.158;4.998;2023-07-16T10:08:19;6.82;;;2.70;;
81374;SDS011;70828;51.158;4.998;2023-07-16T10:10:47;5.50;;;2.92;;
81374;SDS011;70828;51.158;4.998;2023-07-16T10:13:14;4.90;;;2.55;;
81374;SDS011;70828;51.158;4.998;2023-07-16T10:15:50;5.32;;;3.15;;
81374;SDS011;70828;51.158;4.998;2023-07-16T10:18:22;8.75;;;3.00;;
81374;SDS011;70828;51.158;4.998;2023-07-16T10:20:50;5.57;;;2.70;;
81374;SDS011;70828;51.158;4.998;2023-07-16T10:23:19;5.55;;;2.90;;
81374;SDS011;70828;51.158;4.998;2023-07-16T10:25:57;7.60;;;3.00;;
81374;SDS011;70828;51.158;4.998;2023-07-16T10:28:24;5.00;;;2.80;;
81374;SDS011;70828;51.158;4.998;2023-07-16T10:30:51;8.18;;;2.90;;
81374;SDS011;70828;51.158;4.998;2023-07-16T10:33:18;7.88;;;3.60;;
81374;SDS011;70828;51.158;4.998;2023-07-16T10:35:45;6.93;;;3.00;;
81374;SDS011;70828;51.158;4.998;2023-07-16T10:38:13;6.53;;;2.75;;
81374;SDS011;70828;51.158;4.998;2023-07-16T10:40:40;6.47;;;2.45;;
81374;SDS011;70828;51.158;4.998;2023-07-16T10:43:07;9.25;;;3.22;;
81374;SDS011;70828;51.158;4.998;2023-07-16T10:45:34;6.40;;;3.28;;
81374;SDS011;70828;51.158;4.998;2023-07-16T10:48:02;9.07;;;3.17;;
81374;SDS011;70828;51.158;4.998;2023-07-16T10:50:31;8.75;;;3.15;;
81374;SDS011;70828;51.158;4.998;2023-07-16T10:52:58;9.23;;;3.13;;
81374;SDS011;70828;51.158;4.998;2023-07-16T10:55:27;8.57;;;3.55;;
81374;SDS011;70828;51.158;4.998;2023-07-16T10:57:56;7.28;;;3.17;;
81374;SDS011;70828;51.158;4.998;2023-07-16T11:00:24;6.97;;;2.92;;
81374;SDS011;70828;51.158;4.998;2023-07-16T11:02:51;7.88;;;2.67;;
81374;SDS011;70828;51.158;4.998;2023-07-16T11:05:19;7.78;;;3.10;;
81374;SDS011;70828;51.158;4.998;2023-07-16T11:07:47;7.45;;;3.30;;
81374;SDS011;70828;51.158;4.998;2023-07-16T11:10:15;9.52;;;4.07;;
81374;SDS011;70828;51.158;4.998;2023-07-16T11:12:44;7.40;;;3.22;;
81374;SDS011;70828;51.158;4.998;2023-07-16T11:15:11;7.32;;;2.95;;
81374;SDS011;70828;51.158;4.998;2023-07-16T11:17:38;7.53;;;3.28;;
81374;SDS011;70828;51.158;4.998;2023-07-16T11:20:06;6.53;;;3.50;;
81374;SDS011;70828;51.158;4.998;2023-07-16T11:22:36;7.95;;;2.95;;
81374;SDS011;70828;51.158;4.998;2023-07-16T11:25:10;6.45;;;3.35;;
81374;SDS011;70828;51.158;4.998;2023-07-16T11:27:39;8.05;;;2.53;;
81374;SDS011;70828;51.158;4.998;2023-07-16T11:30:08;7.70;;;2.65;;
81374;SDS011;70828;51.158;4.998;2023-07-16T11:32:36;6.28;;;2.78;;
81374;SDS011;70828;51.158;4.998;2023-07-16T11:35:04;5.22;;;2.72;;
81374;SDS011;70828;51.158;4.998;2023-07-16T11:37:33;8.40;;;3.17;;
81374;SDS011;70828;51.158;4.998;2023-07-16T11:40:02;6.93;;;2.90;;
81374;SDS011;70828;51.158;4.998;2023-07-16T11:42:30;5.28;;;2.50;;
81374;SDS011;70828;51.158;4.998;2023-07-16T11:44:58;7.28;;;3.17;;
81374;SDS011;70828;51.158;4.998;2023-07-16T11:47:27;5.97;;;2.75;;
81374;SDS011;70828;51.158;4.998;2023-07-16T11:49:54;6.25;;;2.42;;
81374;SDS011;70828;51.158;4.998;2023-07-16T11:52:21;7.25;;;2.70;;
81374;SDS011;70828;51.158;4.998;2023-07-16T11:54:49;7.85;;;2.95;;
81374;SDS011;70828;51.158;4.998;2023-07-16T11:57:17;6.72;;;2.42;;
81374;SDS011;70828;51.158;4.998;2023-07-16T11:59:44;6.85;;;2.53;;
81374;SDS011;70828;51.158;4.998;2023-07-16T12:02:13;5.45;;;2.53;;
81374;SDS011;70828;51.158;4.998;2023-07-16T12:04:45;9.65;;;3.13;;
81374;SDS011;70828;51.158;4.998;2023-07-16T12:07:12;12.50;;;3.03;;
81374;SDS011;70828;51.158;4.998;2023-07-16T12:09:39;7.43;;;3.10;;
81374;SDS011;70828;51.158;4.998;2023-07-16T12:12:06;6.72;;;3.22;;
81374;SDS011;70828;51.158;4.998;2023-07-16T12:14:33;8.27;;;2.97;;
81374;SDS011;70828;51.158;4.998;2023-07-16T12:17:00;10.45;;;3.83;;
81374;SDS011;70828;51.158;4.998;2023-07-16T12:19:27;9.80;;;3.17;;
81374;SDS011;70828;51.158;4.998;2023-07-16T12:21:55;5.65;;;2.45;;
81374;SDS011;70828;51.158;4.998;2023-07-16T12:24:24;7.97;;;3.20;;
81374;SDS011;70828;51.158;4.998;2023-07-16T12:26:51;7.03;;;2.63;;
81374;SDS011;70828;51.158;4.998;2023-07-16T12:29:17;6.03;;;3.03;;
81374;SDS011;70828;51.158;4.998;2023-07-16T12:31:44;5.53;;;2.80;;
81374;SDS011;70828;51.158;4.998;2023-07-16T12:34:11;6.72;;;2.72;;
81374;SDS011;70828;51.158;4.998;2023-07-16T12:36:37;5.35;;;2.90;;
81374;SDS011;70828;51.158;4.998;2023-07-16T12:39:05;8.32;;;2.13;;
81374;SDS011;70828;51.158;4.998;2023-07-16T12:41:32;5.72;;;2.53;;
81374;SDS011;70828;51.158;4.998;2023-07-16T12:43:58;5.28;;;2.92;;
81374;SDS011;70828;51.158;4.998;2023-07-16T12:46:25;5.05;;;3.08;;
81374;SDS011;70828;51.158;4.998;2023-07-16T12:48:52;10.15;;;2.65;;
81374;SDS011;70828;51.158;4.998;2023-07-16T12:51:19;4.88;;;2.38;;
81374;SDS011;70828;51.158;4.998;2023-07-16T12:53:45;7.43;;;2.90;;
81374;SDS011;70828;51.158;4.998;2023-07-16T12:56:13;7.70;;;2.45;;
81374;SDS011;70828;51.158;4.998;2023-07-16T12:58:40;6.18;;;2.47;;
81374;SDS011;70828;51.158;4.998;2023-07-16T13:01:07;7.82;;;3.30;;
81374;SDS011;70828;51.158;4.998;2023-07-16T13:03:34;8.77;;;3.70;;
81374;SDS011;70828;51.158;4.998;2023-07-16T13:06:00;7.63;;;2.53;;
81374;SDS011;70828;51.158;4.998;2023-07-16T13:08:29;7.63;;;3.13;;
81374;SDS011;70828;51.158;4.998;2023-07-16T13:10:55;5.43;;;2.45;;
81374;SDS011;70828;51.158;4.998;2023-07-16T13:13:23;4.10;;;2.28;;
81374;SDS011;70828;51.158;4.998;2023-07-16T13:15:50;6.93;;;2.78;;
81374;SDS011;70828;51.158;4.998;2023-07-16T13:18:17;4.20;;;2.03;;
81374;SDS011;70828;51.158;4.998;2023-07-16T13:20:43;4.35;;;2.28;;
81374;SDS011;70828;51.158;4.998;2023-07-16T13:23:10;8.82;;;2.17;;
81374;SDS011;70828;51.158;4.998;2023-07-16T13:25:37;4.88;;;2.22;;
81374;SDS011;70828;51.158;4.998;2023-07-16T13:28:03;5.05;;;2.10;;
81374;SDS011;70828;51.158;4.998;2023-07-16T13:30:32;6.80;;;2.55;;
81374;SDS011;70828;51.158;4.998;2023-07-16T13:32:58;5.40;;;2.30;;
81374;SDS011;70828;51.158;4.998;2023-07-16T13:35:26;7.47;;;2.40;;
81374;SDS011;70828;51.158;4.998;2023-07-16T13:37:53;5.85;;;2.90;;
81374;SDS011;70828;51.158;4.998;2023-07-16T13:40:20;6.93;;;2.83;;
81374;SDS011;70828;51.158;4.998;2023-07-16T13:42:46;3.80;;;2.53;;
81374;SDS011;70828;51.158;4.998;2023-07-16T13:45:13;4.72;;;2.67;;
81374;SDS011;70828;51.158;4.998;2023-07-16T13:47:42;5.63;;;2.38;;
81374;SDS011;70828;51.158;4.998;2023-07-16T13:50:09;8.40;;;2.67;;
81374;SDS011;70828;51.158;4.998;2023-07-16T13:52:35;6.50;;;2.45;;
81374;SDS011;70828;51.158;4.998;2023-07-16T13:55:02;5.55;;;2.35;;
81374;SDS011;70828;51.158;4.998;2023-07-16T13:57:29;5.53;;;2.78;;
81374;SDS011;70828;51.158;4.998;2023-07-16T13:59:56;8.38;;;2.70;;
81374;SDS011;70828;51.158;4.998;2023-07-16T14:02:23;4.70;;;2.50;;
81374;SDS011;70828;51.158;4.998;2023-07-16T14:04:50;6.82;;;2.53;;
81374;SDS011;70828;51.158;4.998;2023-07-16T14:07:17;9.43;;;2.40;;
81374;SDS011;70828;51.158;4.998;2023-07-16T14:09:44;9.40;;;2.78;;
81374;SDS011;70828;51.158;4.998;2023-07-16T14:12:10;6.20;;;2.97;;
81374;SDS011;70828;51.158;4.998;2023-07-16T14:14:37;4.93;;;2.17;;
81374;SDS011;70828;51.158;4.998;2023-07-16T14:17:04;6.50;;;2.53;;
81374;SDS011;70828;51.158;4.998;2023-07-16T14:19:31;6.35;;;2.50;;
81374;SDS011;70828;51.158;4.998;2023-07-16T14:21:59;7.18;;;2.25;;
81374;SDS011;70828;51.158;4.998;2023-07-16T14:24:26;6.95;;;3.03;;
81374;SDS011;70828;51.158;4.998;2023-07-16T14:26:52;8.02;;;2.40;;
81374;SDS011;70828;51.158;4.998;2023-07-16T14:29:19;5.53;;;2.67;;
81374;SDS011;70828;51.158;4.998;2023-07-16T14:31:45;4.53;;;1.90;;
81374;SDS011;70828;51.158;4.998;2023-07-16T14:34:12;6.95;;;2.67;;
81374;SDS011;70828;51.158;4.998;2023-07-16T14:36:40;7.18;;;2.78;;
81374;SDS011;70828;51.158;4.998;2023-07-16T14:39:08;3.50;;;2.15;;
81374;SDS011;70828;51.158;4.998;2023-07-16T14:41:34;3.38;;;1.95;;
81374;SDS011;70828;51.158;4.998;2023-07-16T14:44:01;7.93;;;3.00;;
81374;SDS011;70828;51.158;4.998;2023-07-16T14:46:28;5.40;;;2.63;;